Time;durP1;ratioP1;P1;durP2;ratioP2;P2;SDS_P1;SDS_P2;PMS_P1;PMS_P2;Temp;Humidity;BMP_temperature;BMP_pressure;BME280_temperature;BME280_humidity;BME280_pressure;Samples;Min_cycle;Max_cycle;Signal;HPM_P1;HPM_P2
2022/01/09 00:02:06;;;;;;;;;;;0.10;99.90;;;;;;4813285;29;19930;-86
2022/01/09 00:04:32;;;;;;;;;;;0.10;99.90;;;;;;4609294;30;19943;-85
2022/01/09 00:12:06;;;;;;;;;;;0.10;99.90;;;;;;5167092;27;19926;-84
2022/01/09 00:14:33;;;;;;;;;;;0.10;99.90;;;;;;5113241;28;19931;-84
2022/01/09 00:17:00;;;;;;;;;;;0.10;99.90;;;;;;5095289;28;19924;-84
2022/01/09 00:19:26;;;;;;;;;;;0.00;99.90;;;;;;5078888;28;19924;-85
2022/01/09 00:21:53;;;;;;;;;;;0.00;99.90;;;;;;5014610;28;19928;-82
2022/01/09 00:24:19;;;;;;;;;;;0.10;99.90;;;;;;4786385;29;19932;-84
2022/01/09 00:26:46;;;;;;;;;;;0.00;99.90;;;;;;4524547;30;19943;-83
2022/01/09 00:34:19;;;;;;;;;;;0.00;99.90;;;;;;5189209;27;19925;-78
2022/01/09 00:36:46;;;;;;;;;;;-0.10;99.90;;;;;;5153743;27;19934;-82
2022/01/09 00:39:13;;;;;;;;;;;-0.10;99.90;;;;;;5149116;27;19927;-86
2022/01/09 00:41:39;;;;;;;;;;;-0.10;99.90;;;;;;5077346;28;19925;-84
2022/01/09 00:44:06;;;;;;;;;;;-0.10;99.90;;;;;;5004251;28;19942;-85
2022/01/09 00:46:33;;;;;;;;;;;-0.10;99.90;;;;;;4897247;28;19913;-86
2022/01/09 00:49:00;;;;;;;;;;;-0.20;99.90;;;;;;4659509;29;19933;-86
2022/01/09 00:56:32;;;;;;;;;;;-0.20;99.90;;;;;;5184357;27;19925;-78
2022/01/09 00:58:58;;;;;;;;;;;-0.20;99.90;;;;;;5144614;27;19923;-82
2022/01/09 01:01:25;;;;;;;;;;;-0.20;99.90;;;;;;5118257;27;19932;-84
2022/01/09 01:03:52;;;;;;;;;;;-0.20;99.90;;;;;;5092707;28;19923;-82
2022/01/09 01:06:18;;;;;;;;;;;-0.20;99.90;;;;;;5070177;28;19930;-84
2022/01/09 01:08:45;;;;;;;;;;;-0.20;99.90;;;;;;4879920;28;19946;-82
2022/01/09 01:11:12;;;;;;;;;;;-0.20;99.90;;;;;;4726912;29;19962;-83
2022/01/09 01:17:32;;;;;;;;;;;-0.20;99.90;;;;;;5176255;27;19926;-85
2022/01/09 01:19:59;;;;;;;;;;;-0.20;99.90;;;;;;5115535;27;19923;-82
2022/01/09 01:22:26;;;;;;;;;;;-0.20;99.90;;;;;;5092022;28;19931;-85
2022/01/09 01:24:53;;;;;;;;;;;-0.20;99.90;;;;;;5066993;28;19925;-80
2022/01/09 01:27:20;;;;;;;;;;;-0.20;99.90;;;;;;4973822;28;19939;-81
2022/01/09 01:29:47;;;;;;;;;;;-0.20;99.90;;;;;;4809807;29;19937;-85
2022/01/09 01:32:13;;;;;;;;;;;-0.20;99.90;;;;;;4622285;30;19933;-84
2022/01/09 01:39:45;;;;;;;;;;;-0.20;99.90;;;;;;5160386;27;19942;-82
2022/01/09 01:42:12;;;;;;;;;;;-0.20;99.90;;;;;;5095626;28;19923;-81
2022/01/09 01:44:40;;;;;;;;;;;-0.20;99.90;;;;;;5055545;28;19932;-83
2022/01/09 01:47:07;;;;;;;;;;;-0.10;99.90;;;;;;5061531;28;19940;-84
2022/01/09 01:49:33;;;;;;;;;;;-0.10;99.90;;;;;;5044420;28;19926;-82
2022/01/09 01:52:00;;;;;;;;;;;-0.10;99.90;;;;;;4843490;29;19931;-84
2022/01/09 01:54:27;;;;;;;;;;;-0.10;99.90;;;;;;4595541;30;19935;-84
2022/01/09 02:01:59;;;;;;;;;;;-0.10;99.90;;;;;;5170649;27;19926;-81
2022/01/09 02:04:25;;;;;;;;;;;-0.10;99.90;;;;;;5116434;27;19923;-84
2022/01/09 02:06:52;;;;;;;;;;;-0.10;99.90;;;;;;5115790;27;19939;-81
2022/01/09 02:09:19;;;;;;;;;;;-0.10;99.90;;;;;;5098870;28;19924;-80
2022/01/09 02:11:46;;;;;;;;;;;-0.10;99.90;;;;;;4928225;28;19929;-83
2022/01/09 02:14:13;;;;;;;;;;;-0.20;99.90;;;;;;4712939;29;19934;-82
2022/01/09 02:16:40;;;;;;;;;;;-0.20;99.90;;;;;;4399302;31;19939;-82
2022/01/09 02:24:07;;;;;;;;;;;-0.20;99.90;;;;;;5174158;27;19925;-81
2022/01/09 02:26:34;;;;;;;;;;;-0.20;99.90;;;;;;5137092;27;19923;-84
2022/01/09 02:29:00;;;;;;;;;;;-0.20;99.90;;;;;;5136040;27;19931;-82
2022/01/09 02:31:27;;;;;;;;;;;-0.20;99.90;;;;;;5095838;28;19925;-80
2022/01/09 02:33:54;;;;;;;;;;;-0.20;99.90;;;;;;4992842;28;19927;-82
2022/01/09 02:36:20;;;;;;;;;;;-0.30;99.90;;;;;;4813530;29;19930;-82
2022/01/09 02:38:48;;;;;;;;;;;-0.30;99.90;;;;;;4558378;30;19941;-82
2022/01/09 02:46:41;;;;;;;;;;;-0.20;99.90;;;;;;5174962;27;19926;-82
2022/01/09 02:49:08;;;;;;;;;;;-0.20;99.90;;;;;;5118058;27;19924;-79
2022/01/09 02:51:35;;;;;;;;;;;-0.30;99.90;;;;;;5128258;27;19923;-81
2022/01/09 02:55:05;;;;;;;;;;;-0.30;99.90;;;;;;5092660;28;19932;-78
2022/01/09 02:56:49;;;;;;;;;;;-0.30;99.90;;;;;;4984762;28;19927;-78
2022/01/09 02:59:16;;;;;;;;;;;-0.30;99.90;;;;;;4823485;29;19937;-79
2022/01/09 03:01:43;;;;;;;;;;;-0.20;99.90;;;;;;4478050;30;19938;-82
2022/01/09 03:09:17;;;;;;;;;;;-0.30;99.90;;;;;;5183372;27;19926;-78
2022/01/09 03:11:47;;;;;;;;;;;-0.30;99.90;;;;;;5132670;27;19923;-79
2022/01/09 03:14:13;;;;;;;;;;;-0.30;99.90;;;;;;5105848;28;19924;-80
2022/01/09 03:16:40;;;;;;;;;;;-0.30;99.90;;;;;;5099433;28;19979;-83
2022/01/09 03:19:06;;;;;;;;;;;-0.30;99.90;;;;;;5017726;28;19934;-83
2022/01/09 03:21:33;;;;;;;;;;;-0.30;99.90;;;;;;4934192;28;19934;-82
2022/01/09 03:23:59;;;;;;;;;;;-0.30;99.90;;;;;;4717474;29;19932;-82
2022/01/09 03:31:31;;;;;;;;;;;-0.30;99.90;;;;;;5173008;27;19925;-84
2022/01/09 03:33:57;;;;;;;;;;;-0.30;99.90;;;;;;5133612;27;19924;-82
2022/01/09 03:36:24;;;;;;;;;;;-0.20;99.90;;;;;;5112500;28;19931;-83
2022/01/09 03:38:50;;;;;;;;;;;-0.30;99.90;;;;;;5084830;28;19928;-81
2022/01/09 03:41:17;;;;;;;;;;;-0.30;99.90;;;;;;4997284;28;19927;-81
2022/01/09 03:43:44;;;;;;;;;;;-0.30;99.90;;;;;;4829710;29;19938;-85
2022/01/09 03:46:10;;;;;;;;;;;-0.30;99.90;;;;;;4605460;30;19945;-82
2022/01/09 03:51:15;;;;;;;;;;;-0.30;99.90;;;;;;5173066;27;19925;-84
2022/01/09 03:53:42;;;;;;;;;;;-0.40;99.90;;;;;;5141944;27;19924;-84
2022/01/09 03:56:08;;;;;;;;;;;-0.30;99.90;;;;;;5131107;27;19931;-83
2022/01/09 03:58:36;;;;;;;;;;;-0.30;99.90;;;;;;5131272;27;19923;-84
2022/01/09 04:01:03;;;;;;;;;;;-0.30;99.90;;;;;;5058790;28;19933;-81
2022/01/09 04:03:29;;;;;;;;;;;-0.40;99.90;;;;;;4905496;28;19935;-80
2022/01/09 04:06:00;;;;;;;;;;;-0.40;99.90;;;;;;4724785;29;19940;-83
2022/01/09 04:13:32;;;;;;;;;;;-0.40;99.90;;;;;;5154560;27;19926;-81
2022/01/09 04:15:59;;;;;;;;;;;-0.40;99.90;;;;;;5116596;27;19930;-85
2022/01/09 04:18:27;;;;;;;;;;;-0.40;99.90;;;;;;5113233;28;19931;-83
2022/01/09 04:20:54;;;;;;;;;;;-0.30;99.90;;;;;;5060037;28;19929;-81
2022/01/09 04:23:21;;;;;;;;;;;-0.40;99.90;;;;;;5004971;28;19927;-84
2022/01/09 04:25:47;;;;;;;;;;;-0.40;99.90;;;;;;4814346;29;19942;-83
2022/01/09 04:28:14;;;;;;;;;;;-0.40;99.90;;;;;;4540894;30;19937;-84
2022/01/09 04:35:49;;;;;;;;;;;-0.40;99.90;;;;;;5174068;27;19926;-80
2022/01/09 04:38:16;;;;;;;;;;;-0.40;99.90;;;;;;5134977;27;19923;-80
2022/01/09 04:40:42;;;;;;;;;;;-0.40;99.90;;;;;;5113036;27;19930;-81
2022/01/09 04:43:11;;;;;;;;;;;-0.40;99.90;;;;;;5095701;28;19958;-81
2022/01/09 04:45:38;;;;;;;;;;;-0.40;99.90;;;;;;5068536;28;19926;-82
2022/01/09 04:48:07;;;;;;;;;;;-0.40;99.90;;;;;;4887092;28;19936;-82
2022/01/09 04:50:36;;;;;;;;;;;-0.30;99.90;;;;;;4580758;30;19935;-82
2022/01/09 04:58:09;;;;;;;;;;;-0.30;99.90;;;;;;5174218;27;19926;-86
2022/01/09 05:00:36;;;;;;;;;;;-0.30;99.90;;;;;;5116369;27;19938;-82
2022/01/09 05:03:02;;;;;;;;;;;-0.30;99.90;;;;;;5114996;28;19932;-81
2022/01/09 05:05:29;;;;;;;;;;;-0.30;99.90;;;;;;5058091;28;19932;-81
2022/01/09 05:07:56;;;;;;;;;;;-0.30;99.90;;;;;;4981948;28;19927;-83
2022/01/09 05:10:22;;;;;;;;;;;-0.30;99.90;;;;;;4842984;29;19929;-79
2022/01/09 05:12:49;;;;;;;;;;;-0.30;99.90;;;;;;4737880;30;19938;-79
2022/01/09 05:22:09;;;;;;;;;;;-0.20;99.90;;;;;;5183643;27;19925;-81
2022/01/09 05:24:36;;;;;;;;;;;-0.20;99.90;;;;;;5140768;28;19931;-79
2022/01/09 05:27:02;;;;;;;;;;;-0.20;99.90;;;;;;5146525;27;19938;-80
2022/01/09 05:29:29;;;;;;;;;;;-0.20;99.90;;;;;;5110109;28;19924;-79
2022/01/09 05:31:55;;;;;;;;;;;-0.20;99.90;;;;;;5054130;28;19930;-79
2022/01/09 05:34:22;;;;;;;;;;;-0.20;99.90;;;;;;4885484;29;19929;-79
2022/01/09 05:36:49;;;;;;;;;;;-0.20;99.90;;;;;;4685476;29;19932;-79
2022/01/09 05:42:07;;;;;;;;;;;-0.20;99.90;;;;;;5178295;27;19926;-79
2022/01/09 05:44:34;;;;;;;;;;;-0.20;99.90;;;;;;5127179;27;19924;-80
2022/01/09 05:47:01;;;;;;;;;;;-0.20;99.90;;;;;;5121555;27;19923;-84
2022/01/09 05:49:27;;;;;;;;;;;-0.10;99.90;;;;;;5111641;28;19924;-85
2022/01/09 05:51:54;;;;;;;;;;;-0.10;99.90;;;;;;5031687;28;19927;-83
2022/01/09 05:54:20;;;;;;;;;;;-0.10;99.90;;;;;;4906464;29;19928;-84
2022/01/09 05:56:47;;;;;;;;;;;-0.10;99.90;;;;;;4765048;29;19931;-84
2022/01/09 06:04:21;;;;;;;;;;;-0.20;99.90;;;;;;5173535;27;19927;-83
2022/01/09 06:06:49;;;;;;;;;;;-0.10;99.90;;;;;;5136004;27;19930;-82
2022/01/09 06:09:16;;;;;;;;;;;-0.10;99.90;;;;;;5112745;27;19931;-82
2022/01/09 06:11:43;;;;;;;;;;;-0.10;99.90;;;;;;5075657;28;19929;-84
2022/01/09 06:14:09;;;;;;;;;;;-0.10;99.90;;;;;;5011863;28;19930;-81
2022/01/09 06:16:35;;;;;;;;;;;0.00;99.90;;;;;;4883513;29;19935;-82
2022/01/09 06:19:02;;;;;;;;;;;0.00;99.90;;;;;;4763195;29;19931;-85
2022/01/09 06:26:33;;;;;;;;;;;0.00;99.90;;;;;;5174189;27;19925;-80
2022/01/09 06:29:00;;;;;;;;;;;0.00;99.90;;;;;;5121263;27;19931;-82
2022/01/09 06:31:27;;;;;;;;;;;0.10;99.90;;;;;;5123757;27;19932;-80
2022/01/09 06:33:54;;;;;;;;;;;0.10;99.90;;;;;;5070678;28;19925;-81
2022/01/09 06:36:20;;;;;;;;;;;0.10;99.90;;;;;;4991493;28;19926;-84
2022/01/09 06:38:47;;;;;;;;;;;0.10;99.90;;;;;;4762628;29;19936;-84
2022/01/09 06:41:13;;;;;;;;;;;0.10;99.90;;;;;;4601190;30;19934;-83
2022/01/09 06:48:45;;;;;;;;;;;0.20;99.90;;;;;;5173568;27;19925;-83
2022/01/09 06:51:12;;;;;;;;;;;0.20;99.90;;;;;;5137300;27;19945;-81
2022/01/09 06:53:38;;;;;;;;;;;0.20;99.90;;;;;;5117264;27;19931;-82
2022/01/09 06:56:05;;;;;;;;;;;0.20;99.90;;;;;;5083441;28;19948;-82
2022/01/09 06:58:32;;;;;;;;;;;0.20;99.90;;;;;;5019527;28;19926;-82
2022/01/09 07:00:59;;;;;;;;;;;0.20;99.90;;;;;;4891510;28;19930;-81
2022/01/09 07:03:25;;;;;;;;;;;0.20;99.90;;;;;;4614702;30;19935;-84
2022/01/09 07:10:57;;;;;;;;;;;0.30;99.90;;;;;;5179879;27;19925;-80
2022/01/09 07:13:23;;;;;;;;;;;0.30;99.90;;;;;;5145563;27;20006;-81
2022/01/09 07:15:50;;;;;;;;;;;0.30;99.90;;;;;;5121593;27;19931;-79
2022/01/09 07:18:17;;;;;;;;;;;0.30;99.90;;;;;;5117731;27;19923;-78
2022/01/09 07:20:43;;;;;;;;;;;0.30;99.90;;;;;;5097135;28;19925;-79
2022/01/09 07:23:10;;;;;;;;;;;0.30;99.90;;;;;;4903492;28;19937;-79
2022/01/09 07:25:36;;;;;;;;;;;0.30;99.90;;;;;;4699016;29;19940;-81
2022/01/09 07:33:09;;;;;;;;;;;0.40;99.90;;;;;;5153540;27;19926;-82
2022/01/09 07:35:35;;;;;;;;;;;0.50;99.90;;;;;;5084263;27;19924;-82
2022/01/09 07:38:02;;;;;;;;;;;0.50;99.90;;;;;;5093944;27;19932;-81
2022/01/09 07:40:28;;;;;;;;;;;0.50;99.90;;;;;;5074952;28;19936;-84
2022/01/09 07:42:55;;;;;;;;;;;0.50;99.90;;;;;;4999036;28;19926;-81
2022/01/09 07:45:24;;;;;;;;;;;0.50;99.90;;;;;;4850006;29;19934;-81
2022/01/09 07:47:50;;;;;;;;;;;0.50;99.90;;;;;;4720103;30;19942;-81
2022/01/09 07:55:22;;;;;;;;;;;0.50;99.90;;;;;;5171908;27;19929;-82
2022/01/09 07:57:49;;;;;;;;;;;0.50;99.90;;;;;;5109961;27;19924;-84
2022/01/09 08:00:16;;;;;;;;;;;0.50;99.90;;;;;;5117105;28;19932;-83
2022/01/09 08:02:43;;;;;;;;;;;0.60;99.90;;;;;;5095688;28;19925;-83
2022/01/09 08:05:11;;;;;;;;;;;0.60;99.90;;;;;;4975405;28;19935;-83
2022/01/09 08:07:37;;;;;;;;;;;0.60;99.90;;;;;;4790081;29;19931;-81
2022/01/09 08:10:04;;;;;;;;;;;0.60;99.90;;;;;;4656918;30;19940;-80
2022/01/09 08:17:32;;;;;;;;;;;0.70;99.90;;;;;;5185473;27;19925;-80
2022/01/09 08:19:58;;;;;;;;;;;0.70;99.90;;;;;;5139909;27;19923;-83
2022/01/09 08:22:29;;;;;;;;;;;0.70;99.90;;;;;;5127711;27;19932;-81
2022/01/09 08:24:55;;;;;;;;;;;0.70;99.90;;;;;;5102573;28;19939;-83
2022/01/09 08:27:22;;;;;;;;;;;0.70;99.90;;;;;;5050704;28;19926;-83
2022/01/09 08:29:49;;;;;;;;;;;0.80;99.90;;;;;;4912939;28;19928;-81
2022/01/09 08:32:15;;;;;;;;;;;0.80;99.90;;;;;;4657821;29;19934;-82
2022/01/09 08:39:47;;;;;;;;;;;0.80;99.90;;;;;;5173535;27;19926;-81
2022/01/09 08:42:14;;;;;;;;;;;0.90;99.90;;;;;;5128623;27;19924;-80
2022/01/09 08:44:41;;;;;;;;;;;0.90;99.90;;;;;;5099556;27;19931;-84
2022/01/09 08:47:08;;;;;;;;;;;1.00;99.90;;;;;;5102660;28;19932;-82
2022/01/09 08:49:35;;;;;;;;;;;1.00;99.90;;;;;;4954669;28;19950;-82
2022/01/09 08:52:02;;;;;;;;;;;1.00;99.90;;;;;;4799558;29;19931;-83
2022/01/09 08:54:30;;;;;;;;;;;1.10;99.90;;;;;;4590228;30;19943;-85
2022/01/09 09:01:57;;;;;;;;;;;1.10;99.90;;;;;;5169625;27;19925;-82
2022/01/09 09:04:24;;;;;;;;;;;1.10;99.90;;;;;;5134211;27;19931;-84
2022/01/09 09:06:51;;;;;;;;;;;1.10;99.90;;;;;;5114305;28;19947;-83
2022/01/09 09:09:18;;;;;;;;;;;1.20;99.90;;;;;;5078415;28;19947;-82
2022/01/09 09:11:44;;;;;;;;;;;1.20;99.90;;;;;;4970400;28;20570;-82
2022/01/09 09:14:11;;;;;;;;;;;1.30;99.90;;;;;;4831537;29;19942;-82
2022/01/09 09:16:38;;;;;;;;;;;1.30;99.90;;;;;;4553110;30;19938;-84
2022/01/09 09:24:10;;;;;;;;;;;1.30;99.90;;;;;;5183642;27;19929;-79
2022/01/09 09:26:37;;;;;;;;;;;1.40;99.90;;;;;;5147316;27;19923;-84
2022/01/09 09:29:05;;;;;;;;;;;1.40;99.90;;;;;;5127986;28;19939;-85
2022/01/09 09:31:32;;;;;;;;;;;1.50;99.90;;;;;;5072588;28;19936;-85
2022/01/09 09:33:59;;;;;;;;;;;1.50;99.90;;;;;;5002033;28;19927;-86
2022/01/09 09:36:25;;;;;;;;;;;1.50;99.90;;;;;;4852586;29;19952;-85
2022/01/09 09:38:54;;;;;;;;;;;1.50;99.90;;;;;;4564057;30;19942;-84
2022/01/09 09:46:32;;;;;;;;;;;1.60;99.90;;;;;;5179860;27;19937;-83
2022/01/09 09:48:59;;;;;;;;;;;1.70;99.90;;;;;;5132610;27;19938;-84
2022/01/09 09:51:27;;;;;;;;;;;1.80;99.90;;;;;;5117595;27;19924;-81
2022/01/09 09:53:55;;;;;;;;;;;1.80;99.90;;;;;;5054874;28;19937;-82
2022/01/09 09:56:22;;;;;;;;;;;1.70;99.90;;;;;;5040934;28;19932;-79
2022/01/09 09:58:49;;;;;;;;;;;1.70;99.90;;;;;;4851617;28;19931;-81
2022/01/09 10:01:22;;;;;;;;;;;1.70;99.90;;;;;;4550807;30;19945;-80
2022/01/09 10:08:55;;;;;;;;;;;1.80;99.90;;;;;;5195187;27;19913;-80
2022/01/09 10:11:21;;;;;;;;;;;1.80;99.90;;;;;;5155967;27;19922;-81
2022/01/09 10:14:08;;;;;;;;;;;1.90;99.90;;;;;;5123496;27;19946;-80
2022/01/09 10:16:35;;;;;;;;;;;1.90;99.90;;;;;;5073089;28;19925;-83
2022/01/09 10:19:02;;;;;;;;;;;2.00;99.90;;;;;;5026607;28;19932;-83
2022/01/09 10:21:29;;;;;;;;;;;2.00;99.90;;;;;;4844916;28;19951;-84
2022/01/09 10:23:56;;;;;;;;;;;2.00;99.90;;;;;;4576748;30;19944;-84
2022/01/09 10:26:27;;;;;;;;;;;2.00;99.90;;;;;;4340393;31;19949;-83
2022/01/09 10:33:40;;;;;;;;;;;2.20;99.90;;;;;;5154926;27;19926;-81
2022/01/09 10:36:07;;;;;;;;;;;2.30;99.90;;;;;;5116184;27;19937;-85
2022/01/09 10:38:34;;;;;;;;;;;2.40;99.90;;;;;;5091751;28;19924;-82
2022/01/09 10:41:03;;;;;;;;;;;2.40;99.90;;;;;;5090509;28;19925;-84
2022/01/09 10:43:34;;;;;;;;;;;2.40;99.90;;;;;;4988439;28;19927;-80
2022/01/09 10:46:01;;;;;;;;;;;2.50;99.90;;;;;;4830106;29;19930;-79
2022/01/09 10:48:33;;;;;;;;;;;2.70;99.90;;;;;;4668722;30;19933;-79
2022/01/09 10:56:09;;;;;;;;;;;2.80;99.90;;;;;;5175932;27;19926;-81
2022/01/09 10:58:37;;;;;;;;;;;2.90;99.90;;;;;;5107663;27;19924;-82
2022/01/09 11:01:21;;;;;;;;;;;2.90;99.90;;;;;;5090373;28;19925;-82
2022/01/09 11:03:48;;;;;;;;;;;2.80;99.90;;;;;;5017850;28;19925;-81
2022/01/09 11:06:16;;;;;;;;;;;2.70;99.90;;;;;;4936466;28;19940;-82
2022/01/09 11:08:43;;;;;;;;;;;2.70;99.90;;;;;;4735773;29;19932;-82
2022/01/09 11:11:19;;;;;;;;;;;2.80;99.90;;;;;;4532554;31;19935;-82
2022/01/09 11:18:52;;;;;;;;;;;3.10;99.90;;;;;;5177506;27;19941;-81
2022/01/09 11:21:18;;;;;;;;;;;3.20;99.90;;;;;;5139795;27;19923;-81
2022/01/09 11:23:52;;;;;;;;;;;3.50;99.90;;;;;;5095989;28;20031;-83
2022/01/09 11:26:19;;;;;;;;;;;3.60;99.90;;;;;;5066560;28;19924;-82
2022/01/09 11:28:49;;;;;;;;;;;3.50;99.90;;;;;;4985210;28;19938;-80
2022/01/09 11:31:20;;;;;;;;;;;3.30;99.90;;;;;;4788585;29;20034;-84
2022/01/09 11:33:53;;;;;;;;;;;3.30;99.90;;;;;;4489664;30;19938;-82
2022/01/09 11:41:26;;;;;;;;;;;3.40;99.90;;;;;;5175079;27;19941;-83
2022/01/09 11:43:54;;;;;;;;;;;3.50;99.90;;;;;;5114933;27;19924;-83
2022/01/09 11:46:21;;;;;;;;;;;3.30;99.90;;;;;;5130894;27;19931;-84
2022/01/09 11:48:59;;;;;;;;;;;3.30;99.90;;;;;;5069526;28;19928;-84
2022/01/09 11:51:26;;;;;;;;;;;3.40;99.90;;;;;;4953137;28;19928;-86
2022/01/09 11:53:55;;;;;;;;;;;3.30;99.90;;;;;;4759263;29;19955;-88
2022/01/09 11:56:38;;;;;;;;;;;3.40;99.90;;;;;;4500185;30;19945;-86
2022/01/09 12:04:08;;;;;;;;;;;3.40;99.90;;;;;;5183749;27;19926;-83
2022/01/09 12:06:39;;;;;;;;;;;3.30;99.90;;;;;;5124706;27;19923;-83
2022/01/09 12:09:08;;;;;;;;;;;3.30;99.90;;;;;;5105057;28;19924;-86
2022/01/09 12:11:54;;;;;;;;;;;3.40;99.90;;;;;;5041841;28;19936;-84
2022/01/09 12:14:36;;;;;;;;;;;3.50;99.90;;;;;;4870784;29;19937;-86
2022/01/09 12:17:02;;;;;;;;;;;3.40;99.90;;;;;;4666348;30;19940;-82
2022/01/09 12:24:55;;;;;;;;;;;3.60;99.90;;;;;;5191919;27;19929;-80
2022/01/09 12:27:41;;;;;;;;;;;3.60;99.90;;;;;;5157561;27;19911;-81
2022/01/09 12:30:09;;;;;;;;;;;3.60;99.90;;;;;;5121098;28;19931;-81
2022/01/09 12:32:39;;;;;;;;;;;3.60;99.90;;;;;;5073007;28;19932;-83
2022/01/09 12:35:16;;;;;;;;;;;3.60;99.90;;;;;;4959883;28;19939;-84
2022/01/09 12:37:46;;;;;;;;;;;3.60;99.90;;;;;;4750514;29;19932;-81
2022/01/09 12:43:08;;;;;;;;;;;3.50;99.90;;;;;;5166071;27;19926;-82
2022/01/09 12:45:35;;;;;;;;;;;3.50;99.90;;;;;;5120922;27;19930;-84
2022/01/09 12:48:04;;;;;;;;;;;3.60;99.90;;;;;;5119594;27;19924;-81
2022/01/09 12:50:33;;;;;;;;;;;3.60;99.90;;;;;;5101307;28;19932;-87
2022/01/09 12:53:14;;;;;;;;;;;3.60;99.90;;;;;;5005327;28;19938;-86
2022/01/09 12:55:54;;;;;;;;;;;3.50;99.90;;;;;;4776401;29;19954;-85
2022/01/09 12:58:23;;;;;;;;;;;3.50;99.90;;;;;;4454438;30;19945;-86
2022/01/09 13:05:54;;;;;;;;;;;3.60;99.90;;;;;;5174579;27;19934;-83
2022/01/09 13:08:20;;;;;;;;;;;3.60;99.90;;;;;;5137251;27;19923;-87
2022/01/09 13:10:55;;;;;;;;;;;3.70;99.90;;;;;;5139407;27;19947;-87
2022/01/09 13:13:23;;;;;;;;;;;3.70;99.90;;;;;;5088842;28;19932;-88
2022/01/09 13:15:49;;;;;;;;;;;3.60;99.90;;;;;;5043735;28;19944;-80
2022/01/09 13:18:16;;;;;;;;;;;3.70;99.90;;;;;;4889097;28;19933;-80
2022/01/09 13:20:43;;;;;;;;;;;3.60;99.90;;;;;;4724423;29;19932;-83
2022/01/09 13:28:18;;;;;;;;;;;3.60;99.90;;;;;;5155741;27;20029;-81
2022/01/09 13:30:45;;;;;;;;;;;3.60;99.90;;;;;;5091330;28;19924;-84
2022/01/09 13:33:12;;;;;;;;;;;3.60;99.90;;;;;;5084165;28;19925;-81
2022/01/09 13:35:38;;;;;;;;;;;3.60;99.90;;;;;;5068086;28;19933;-82
2022/01/09 13:38:05;;;;;;;;;;;3.60;99.90;;;;;;4979699;28;19935;-80
2022/01/09 13:40:32;;;;;;;;;;;3.60;99.90;;;;;;4865957;29;19940;-80
2022/01/09 13:42:59;;;;;;;;;;;3.70;99.90;;;;;;4724835;29;19932;-79
2022/01/09 13:50:30;;;;;;;;;;;3.70;99.90;;;;;;5173529;27;19926;-82
2022/01/09 13:53:05;;;;;;;;;;;3.60;99.90;;;;;;5119884;27;19924;-83
2022/01/09 13:55:34;;;;;;;;;;;3.60;99.90;;;;;;5093414;28;19925;-84
2022/01/09 13:58:03;;;;;;;;;;;3.60;99.90;;;;;;5099537;28;19924;-84
2022/01/09 14:00:32;;;;;;;;;;;3.60;99.90;;;;;;4984070;28;19927;-82
2022/01/09 14:03:00;;;;;;;;;;;3.50;99.90;;;;;;4789873;29;19937;-84
2022/01/09 14:05:27;;;;;;;;;;;3.60;99.90;;;;;;4499679;30;19938;-82
2022/01/09 14:12:55;;;;;;;;;;;3.60;99.90;;;;;;5161189;27;19925;-83
2022/01/09 14:15:22;;;;;;;;;;;3.60;99.90;;;;;;5117526;27;19931;-83
2022/01/09 14:17:49;;;;;;;;;;;3.50;99.90;;;;;;5091364;28;19939;-81
2022/01/09 14:20:17;;;;;;;;;;;3.60;99.90;;;;;;5036375;28;19937;-81
2022/01/09 14:22:47;;;;;;;;;;;3.60;99.90;;;;;;4879164;29;19930;-81
2022/01/09 14:25:15;;;;;;;;;;;3.70;99.90;;;;;;4722227;29;19933;-85
2022/01/09 14:27:44;;;;;;;;;;;3.70;99.90;;;;;;4451464;31;19946;-84
2022/01/09 14:35:28;;;;;;;;;;;3.70;99.90;;;;;;5178514;27;19925;-82
2022/01/09 14:37:58;;;;;;;;;;;3.70;99.90;;;;;;5125973;27;19924;-82
2022/01/09 14:40:25;;;;;;;;;;;3.70;99.90;;;;;;5147269;27;19941;-82
2022/01/09 14:42:52;;;;;;;;;;;3.60;99.90;;;;;;5120923;28;19924;-81
2022/01/09 14:45:18;;;;;;;;;;;3.60;99.90;;;;;;5012609;28;19928;-80
2022/01/09 14:47:45;;;;;;;;;;;3.60;99.90;;;;;;4837140;29;19939;-80
2022/01/09 14:50:12;;;;;;;;;;;3.60;99.90;;;;;;4628829;30;19935;-80
2022/01/09 14:57:40;;;;;;;;;;;3.60;99.90;;;;;;5177754;27;19926;-85
2022/01/09 15:00:08;;;;;;;;;;;3.60;99.90;;;;;;5136816;27;19935;-83
2022/01/09 15:02:35;;;;;;;;;;;3.60;99.90;;;;;;5129347;27;20006;-80
2022/01/09 15:05:02;;;;;;;;;;;3.60;99.90;;;;;;5117274;27;19924;-82
2022/01/09 15:07:30;;;;;;;;;;;3.60;99.90;;;;;;5056452;28;19942;-84
2022/01/09 15:09:56;;;;;;;;;;;3.60;99.90;;;;;;4938306;28;19929;-82
2022/01/09 15:12:23;;;;;;;;;;;3.60;99.90;;;;;;4613232;30;19935;-84
2022/01/09 15:19:51;;;;;;;;;;;3.60;99.90;;;;;;5176274;27;19926;-84
2022/01/09 15:22:18;;;;;;;;;;;3.60;99.90;;;;;;5136382;27;19931;-83
2022/01/09 15:24:44;;;;;;;;;;;3.60;99.90;;;;;;5101105;28;19939;-84
2022/01/09 15:27:11;;;;;;;;;;;3.60;99.90;;;;;;5080849;27;19924;-84
2022/01/09 15:29:38;;;;;;;;;;;3.60;99.90;;;;;;5062828;28;19926;-83
2022/01/09 15:32:05;;;;;;;;;;;3.60;99.90;;;;;;4794941;29;19932;-82
2022/01/09 15:34:32;;;;;;;;;;;3.60;99.90;;;;;;4500206;30;19960;-85
2022/01/09 15:42:03;;;;;;;;;;;3.60;99.90;;;;;;5174995;27;19926;-82
2022/01/09 15:44:30;;;;;;;;;;;3.50;99.90;;;;;;5126636;27;19930;-80
2022/01/09 15:46:57;;;;;;;;;;;3.50;99.90;;;;;;5125739;27;19931;-81
2022/01/09 15:49:23;;;;;;;;;;;3.50;99.90;;;;;;5114497;28;19931;-79
2022/01/09 15:51:50;;;;;;;;;;;3.60;99.90;;;;;;5024654;28;19937;-80
2022/01/09 15:54:17;;;;;;;;;;;3.60;99.90;;;;;;4867898;28;19931;-81
2022/01/09 15:56:43;;;;;;;;;;;3.60;99.90;;;;;;4627659;30;19935;-80
2022/01/09 16:04:17;;;;;;;;;;;3.60;99.90;;;;;;5174048;27;19926;-83
2022/01/09 16:06:44;;;;;;;;;;;3.60;99.90;;;;;;5114074;27;19923;-83
2022/01/09 16:09:11;;;;;;;;;;;3.60;99.90;;;;;;5111127;28;19935;-81
2022/01/09 16:11:37;;;;;;;;;;;3.60;99.90;;;;;;5056950;28;19937;-83
2022/01/09 16:14:04;;;;;;;;;;;3.60;99.90;;;;;;4947546;28;19954;-84
2022/01/09 16:16:31;;;;;;;;;;;3.60;99.90;;;;;;4766271;29;19932;-82
2022/01/09 16:18:58;;;;;;;;;;;3.60;99.90;;;;;;4559696;30;19943;-85
2022/01/09 16:26:28;;;;;;;;;;;3.60;99.90;;;;;;5175146;27;19930;-86
2022/01/09 16:28:54;;;;;;;;;;;3.60;99.90;;;;;;5137896;27;19923;-83
2022/01/09 16:31:22;;;;;;;;;;;3.60;99.90;;;;;;5136975;27;20495;-85
2022/01/09 16:33:50;;;;;;;;;;;3.70;99.90;;;;;;5096965;28;19932;-83
2022/01/09 16:36:18;;;;;;;;;;;3.70;99.90;;;;;;4961752;28;19928;-86
2022/01/09 16:38:45;;;;;;;;;;;3.60;99.90;;;;;;4776302;29;19931;-83
2022/01/09 16:41:16;;;;;;;;;;;3.60;99.90;;;;;;4568684;30;19934;-83
2022/01/09 16:47:12;;;;;;;;;;;3.60;99.90;;;;;;5175152;27;19930;-83
2022/01/09 16:49:39;;;;;;;;;;;3.50;99.90;;;;;;5121132;27;19923;-85
2022/01/09 16:52:05;;;;;;;;;;;3.50;99.90;;;;;;5123313;28;19947;-79
2022/01/09 16:54:33;;;;;;;;;;;3.60;99.90;;;;;;5085091;28;19931;-81
2022/01/09 16:57:00;;;;;;;;;;;3.50;99.90;;;;;;5022884;28;19931;-84
2022/01/09 16:59:26;;;;;;;;;;;3.60;99.90;;;;;;4864563;29;19929;-85
2022/01/09 17:01:53;;;;;;;;;;;3.60;99.90;;;;;;4665285;29;19953;-81
2022/01/09 17:09:20;;;;;;;;;;;3.60;99.90;;;;;;5193735;27;19926;-82
2022/01/09 17:11:47;;;;;;;;;;;3.60;99.90;;;;;;5145040;27;19924;-85
2022/01/09 17:14:14;;;;;;;;;;;3.60;99.90;;;;;;5119710;27;19938;-83
2022/01/09 17:16:41;;;;;;;;;;;3.60;99.90;;;;;;5065674;28;19926;-83
2022/01/09 17:19:08;;;;;;;;;;;3.60;99.90;;;;;;4975996;28;19926;-82
2022/01/09 17:21:34;;;;;;;;;;;3.60;99.90;;;;;;4837635;29;19930;-82
2022/01/09 17:24:01;;;;;;;;;;;3.70;99.90;;;;;;4626859;30;19942;-84
2022/01/09 17:34:09;;;;;;;;;;;3.70;99.90;;;;;;5176035;27;19926;-82
2022/01/09 17:36:39;;;;;;;;;;;3.80;99.90;;;;;;5117286;27;19924;-82
2022/01/09 17:39:07;;;;;;;;;;;3.70;99.90;;;;;;5124778;27;19932;-81
2022/01/09 17:41:34;;;;;;;;;;;3.70;99.90;;;;;;5078754;28;19924;-84
2022/01/09 17:44:14;;;;;;;;;;;;;;;;;;;;;
2022/01/09 17:46:42;;;;;;;;;;;3.80;99.90;;;;;;4892132;28;19929;-80
2022/01/09 17:49:10;;;;;;;;;;;3.90;99.90;;;;;;4801524;29;19929;-80
2022/01/09 17:51:36;;;;;;;;;;;3.80;99.90;;;;;;4642459;30;19942;-81
2022/01/09 17:59:08;;;;;;;;;;;3.80;99.90;;;;;;5185182;27;19926;-81
2022/01/09 18:01:35;;;;;;;;;;;3.80;99.90;;;;;;5142555;27;19923;-80
2022/01/09 18:04:02;;;;;;;;;;;3.80;99.90;;;;;;5120637;27;19939;-81
2022/01/09 18:06:28;;;;;;;;;;;3.70;99.90;;;;;;5132643;27;19932;-84
2022/01/09 18:08:56;;;;;;;;;;;3.70;99.90;;;;;;5104820;28;19932;-83
2022/01/09 18:11:23;;;;;;;;;;;3.80;99.90;;;;;;4959050;28;19935;-84
2022/01/09 18:13:50;;;;;;;;;;;3.80;99.90;;;;;;4696300;29;19957;-85
2022/01/09 18:21:23;;;;;;;;;;;3.80;99.90;;;;;;5178161;27;19926;-81
2022/01/09 18:23:50;;;;;;;;;;;3.80;99.90;;;;;;5104871;28;19938;-80
2022/01/09 18:26:17;;;;;;;;;;;3.80;99.90;;;;;;5109996;28;19933;-80
2022/01/09 18:28:43;;;;;;;;;;;3.80;99.90;;;;;;5049941;28;19926;-80
2022/01/09 18:31:11;;;;;;;;;;;3.80;99.90;;;;;;4955526;28;19927;-84
2022/01/09 18:33:37;;;;;;;;;;;3.70;99.90;;;;;;4858474;29;19952;-83
2022/01/09 18:36:04;;;;;;;;;;;3.80;99.90;;;;;;4664341;29;19935;-81
2022/01/09 18:45:50;;;;;;;;;;;3.80;99.90;;;;;;5175903;27;19941;-81